Time;durP1;ratioP1;P1;durP2;ratioP2;P2;SDS_P1;SDS_P2;PMS_P1;PMS_P2;Temp;Humidity;BMP_temperature;BMP_pressure;BME280_temperature;BME280_humidity;BME280_pressure;Samples;Min_cycle;Max_cycle;Signal;HPM_P1;HPM_P2
2023/11/13 00:02:16;;;;;;;20.23;5.18;;;9.70;99.90;;;;;;6273601;28;20056;-88
2023/11/13 00:05:18;;;;;;;25.77;6.55;;;9.70;99.90;;;;;;6257053;28;20472;-86
2023/11/13 00:08:20;;;;;;;24.08;5.90;;;9.80;99.90;;;;;;6256428;28;20142;-86
2023/11/13 00:11:22;;;;;;;22.42;5.88;;;9.80;99.90;;;;;;6274680;28;20056;-87
2023/11/13 00:14:23;;;;;;;17.90;5.68;;;9.80;99.90;;;;;;6254182;28;20114;-86
2023/11/13 00:17:25;;;;;;;21.85;5.55;;;9.80;99.90;;;;;;6256955;28;20480;-86
2023/11/13 00:20:26;;;;;;;21.55;6.30;;;9.90;99.90;;;;;;6274392;28;20136;-87
2023/11/13 00:23:28;;;;;;;23.05;6.07;;;9.90;99.90;;;;;;6274298;28;20442;-87
2023/11/13 00:26:30;;;;;;;24.35;5.38;;;9.90;99.90;;;;;;6274787;28;20507;-88
2023/11/13 00:29:32;;;;;;;27.52;4.97;;;10.00;99.90;;;;;;6273672;28;20064;-88
2023/11/13 00:32:33;;;;;;;25.63;4.93;;;10.00;99.90;;;;;;6266725;28;20049;-85
2023/11/13 00:35:35;;;;;;;33.47;5.28;;;10.10;99.90;;;;;;6288083;28;20445;-86
2023/11/13 00:38:36;;;;;;;20.48;4.10;;;10.20;99.90;;;;;;6274905;28;20056;-88
2023/11/13 00:41:41;;;;;;;20.83;4.03;;;10.30;99.90;;;;;;6257182;28;20041;-88
2023/11/13 00:44:43;;;;;;;26.05;4.97;;;10.30;99.90;;;;;;6252335;28;20117;-88
2023/11/13 00:47:44;;;;;;;28.73;4.32;;;10.30;99.90;;;;;;6277441;28;20052;-88
2023/11/13 00:50:46;;;;;;;20.05;4.25;;;10.30;99.90;;;;;;6274789;28;20057;-86
2023/11/13 00:53:47;;;;;;;16.48;3.47;;;10.30;99.90;;;;;;6274750;28;20126;-88
2023/11/13 00:56:49;;;;;;;26.55;3.85;;;10.30;99.90;;;;;;6274191;28;20048;-89
2023/11/13 00:59:51;;;;;;;25.35;3.95;;;10.30;99.90;;;;;;6254203;28;20049;-88
2023/11/13 01:02:53;;;;;;;14.88;3.25;;;10.40;99.90;;;;;;6256279;28;20488;-87
2023/11/13 01:05:55;;;;;;;20.25;3.78;;;10.30;99.90;;;;;;6258819;28;20057;-87
2023/11/13 01:08:58;;;;;;;27.17;4.72;;;10.40;99.90;;;;;;6277665;28;20052;-86
2023/11/13 01:12:00;;;;;;;25.13;3.97;;;10.40;99.90;;;;;;6257336;28;20060;-89
2023/11/13 01:15:04;;;;;;;26.05;4.90;;;10.40;99.90;;;;;;6276575;28;20057;-86
2023/11/13 01:18:06;;;;;;;23.80;3.58;;;10.50;99.90;;;;;;6254313;28;20049;-86
2023/11/13 01:21:08;;;;;;;24.45;3.65;;;10.40;99.90;;;;;;6252873;28;20414;-85
2023/11/13 01:24:09;;;;;;;26.83;4.65;;;10.40;99.90;;;;;;6269486;28;20057;-85
2023/11/13 01:27:11;;;;;;;15.25;3.45;;;10.40;99.90;;;;;;6251244;28;20079;-84
2023/11/13 01:30:12;;;;;;;25.63;4.03;;;10.40;99.90;;;;;;6265850;28;20053;-84
2023/11/13 01:33:14;;;;;;;28.10;4.80;;;10.40;99.90;;;;;;6268420;28;20056;-83
2023/11/13 01:36:16;;;;;;;31.98;4.88;;;10.50;99.90;;;;;;6268408;28;20059;-84
2023/11/13 01:39:17;;;;;;;24.55;4.03;;;10.50;99.90;;;;;;6269693;28;20071;-83
2023/11/13 01:42:19;;;;;;;19.50;4.03;;;10.50;99.90;;;;;;6250603;28;20048;-84
2023/11/13 01:45:21;;;;;;;21.67;4.53;;;10.60;99.90;;;;;;6266019;28;20057;-86
2023/11/13 01:48:23;;;;;;;23.52;4.15;;;10.50;99.90;;;;;;6267732;28;20139;-85
2023/11/13 01:51:25;;;;;;;25.83;4.53;;;10.50;99.90;;;;;;6250844;28;20408;-85
2023/11/13 01:54:26;;;;;;;29.30;4.47;;;10.60;99.90;;;;;;6271965;28;20064;-84
2023/11/13 01:57:28;;;;;;;29.33;4.70;;;10.60;99.90;;;;;;6273034;28;20588;-84
2023/11/13 02:00:29;;;;;;;27.17;4.43;;;10.70;99.90;;;;;;6251329;28;20053;-84
2023/11/13 02:03:31;;;;;;;28.40;4.60;;;10.60;99.90;;;;;;6255596;28;20055;-85
2023/11/13 02:06:32;;;;;;;20.48;4.28;;;10.60;99.90;;;;;;6273503;28;20055;-84
2023/11/13 02:09:34;;;;;;;21.27;3.97;;;10.60;99.90;;;;;;6273445;28;20102;-85
2023/11/13 02:12:37;;;;;;;23.15;4.03;;;10.60;99.90;;;;;;6254999;28;20048;-85
2023/11/13 02:15:40;;;;;;;19.50;3.92;;;10.60;99.90;;;;;;6269606;28;20049;-83
2023/11/13 02:18:42;;;;;;;21.15;4.43;;;10.60;99.90;;;;;;6272402;28;20600;-84
2023/11/13 02:21:43;;;;;;;23.00;4.03;;;10.50;99.90;;;;;;6253864;28;20058;-84
2023/11/13 02:24:45;;;;;;;20.58;3.55;;;10.40;99.90;;;;;;6271914;28;20057;-83
2023/11/13 02:27:46;;;;;;;19.05;3.22;;;10.40;99.90;;;;;;6272025;28;20148;-84
2023/11/13 02:30:48;;;;;;;14.20;2.65;;;10.40;99.90;;;;;;6269181;28;20053;-86
2023/11/13 02:33:50;;;;;;;16.20;3.08;;;10.30;99.90;;;;;;6254652;28;20049;-85
2023/11/13 02:36:51;;;;;;;10.68;2.70;;;10.30;99.90;;;;;;6272395;28;20049;-85
2023/11/13 02:39:53;;;;;;;16.83;3.10;;;10.30;99.90;;;;;;6272050;28;20049;-83
2023/11/13 02:42:54;;;;;;;12.20;2.80;;;10.30;99.90;;;;;;6271533;28;20056;-83
2023/11/13 02:45:56;;;;;;;14.45;3.38;;;10.20;99.90;;;;;;6266860;28;20045;-83
2023/11/13 02:48:58;;;;;;;14.05;2.80;;;10.20;99.90;;;;;;6270946;28;20065;-83
2023/11/13 02:51:59;;;;;;;14.80;3.25;;;10.20;99.90;;;;;;6271303;28;20095;-83
2023/11/13 02:55:01;;;;;;;15.93;3.35;;;10.10;99.90;;;;;;6271106;28;20145;-82
2023/11/13 02:58:03;;;;;;;16.45;3.30;;;10.10;99.90;;;;;;6270842;28;20060;-83
2023/11/13 03:01:04;;;;;;;21.50;3.70;;;10.00;99.90;;;;;;6263697;28;20572;-83
2023/11/13 03:04:06;;;;;;;16.52;3.15;;;10.00;99.90;;;;;;6271133;28;20131;-84
2023/11/13 03:07:08;;;;;;;13.38;3.13;;;10.00;99.90;;;;;;6269187;28;20444;-82
2023/11/13 03:10:10;;;;;;;15.80;3.47;;;10.00;99.90;;;;;;6271196;28;20084;-83
2023/11/13 03:13:11;;;;;;;22.35;3.38;;;10.00;99.90;;;;;;6270327;28;20044;-83
2023/11/13 03:16:13;;;;;;;12.45;2.90;;;10.00;99.90;;;;;;6269546;28;20091;-83
2023/11/13 03:19:15;;;;;;;25.02;3.35;;;10.00;99.90;;;;;;6228569;28;20069;-83
2023/11/13 03:22:16;;;;;;;16.35;3.30;;;10.00;99.90;;;;;;6269773;28;20049;-83
2023/11/13 03:25:18;;;;;;;19.42;3.60;;;10.00;99.90;;;;;;6270371;28;20056;-81
2023/11/13 03:28:20;;;;;;;15.10;3.15;;;10.10;99.90;;;;;;6263682;28;20053;-82
2023/11/13 03:31:22;;;;;;;16.73;3.33;;;10.00;99.90;;;;;;6244137;28;20049;-82
2023/11/13 03:34:24;;;;;;;20.35;3.85;;;10.10;99.90;;;;;;6245615;28;20064;-82
2023/11/13 03:37:25;;;;;;;21.35;3.78;;;10.10;99.90;;;;;;6269739;28;20060;-83
2023/11/13 03:40:27;;;;;;;21.90;3.67;;;10.10;99.90;;;;;;6269557;28;20055;-82
2023/11/13 03:43:29;;;;;;;18.45;3.85;;;10.10;99.90;;;;;;6267340;28;20056;-82
2023/11/13 03:46:31;;;;;;;19.52;3.60;;;10.10;99.90;;;;;;6269852;28;20511;-83
2023/11/13 03:49:32;;;;;;;16.73;3.30;;;10.10;99.90;;;;;;6269340;28;20103;-82
2023/11/13 03:52:34;;;;;;;16.48;3.80;;;10.10;99.90;;;;;;6252336;28;20052;-82
2023/11/13 03:55:36;;;;;;;24.67;3.72;;;10.10;99.90;;;;;;6252676;28;20044;-82
2023/11/13 03:58:37;;;;;;;18.85;3.83;;;10.10;99.90;;;;;;6269467;28;20052;-84
2023/11/13 04:01:39;;;;;;;13.00;2.65;;;10.10;99.90;;;;;;6270121;28;20485;-81
2023/11/13 04:04:40;;;;;;;20.60;3.35;;;10.10;99.90;;;;;;6245316;28;20076;-83
2023/11/13 04:07:42;;;;;;;13.32;2.78;;;10.20;99.90;;;;;;6266996;28;20056;-84
2023/11/13 04:10:44;;;;;;;14.57;2.70;;;10.20;99.90;;;;;;6270054;28;20048;-84
2023/11/13 04:13:46;;;;;;;18.98;2.90;;;10.20;99.90;;;;;;6265492;28;20519;-83
2023/11/13 04:16:47;;;;;;;11.70;2.67;;;10.20;99.90;;;;;;6269223;28;20485;-84
2023/11/13 04:19:49;;;;;;;10.00;2.55;;;10.20;99.90;;;;;;6269328;28;20106;-82
2023/11/13 04:22:51;;;;;;;14.95;3.15;;;10.20;99.90;;;;;;6268654;28;20104;-83
2023/11/13 04:25:52;;;;;;;12.38;2.05;;;10.20;99.90;;;;;;6269000;28;20052;-83
2023/11/13 04:28:54;;;;;;;11.27;2.10;;;10.30;99.90;;;;;;6246394;28;20136;-82
2023/11/13 04:31:55;;;;;;;10.13;2.00;;;10.20;99.90;;;;;;6270016;28;20057;-84
2023/11/13 04:34:57;;;;;;;9.07;1.73;;;10.30;99.90;;;;;;6269121;28;20500;-83
2023/11/13 04:37:58;;;;;;;6.35;1.58;;;10.30;99.90;;;;;;6269960;28;20092;-84
2023/11/13 04:41:00;;;;;;;6.93;2.28;;;10.30;99.90;;;;;;6251623;28;20049;-85
2023/11/13 04:44:02;;;;;;;8.93;1.48;;;10.30;99.90;;;;;;6251105;28;20059;-84
2023/11/13 04:47:04;;;;;;;7.32;1.65;;;10.30;99.90;;;;;;6269642;28;20049;-85
2023/11/13 04:50:05;;;;;;;5.97;1.30;;;10.30;99.90;;;;;;6269532;28;20056;-83
2023/11/13 04:53:07;;;;;;;5.45;1.17;;;10.30;99.90;;;;;;6268904;28;20055;-85
2023/11/13 04:56:09;;;;;;;6.45;1.30;;;10.40;99.90;;;;;;6250927;28;20049;-83
2023/11/13 04:59:11;;;;;;;3.85;0.68;;;10.40;99.90;;;;;;6264462;28;20094;-85
2023/11/13 05:02:13;;;;;;;1.40;0.60;;;10.50;99.90;;;;;;6270624;28;20053;-86
2023/11/13 05:05:16;;;;;;;2.83;0.50;;;10.50;99.90;;;;;;6252505;28;20246;-86
2023/11/13 05:08:17;;;;;;;3.03;0.60;;;10.60;99.90;;;;;;6272681;28;20048;-86
2023/11/13 05:11:19;;;;;;;1.98;0.50;;;10.70;99.90;;;;;;6272595;28;20690;-86
2023/11/13 05:14:21;;;;;;;2.72;0.50;;;10.70;99.90;;;;;;6270742;28;20096;-87
2023/11/13 05:17:22;;;;;;;1.15;0.40;;;10.70;99.90;;;;;;6255967;28;20496;-89
2023/11/13 05:20:25;;;;;;;0.60;0.40;;;10.70;99.90;;;;;;6257474;28;20412;-87
2023/11/13 05:23:26;;;;;;;1.20;0.40;;;10.80;99.90;;;;;;6282457;28;20103;-89
2023/11/13 05:26:28;;;;;;;1.50;0.40;;;10.80;99.90;;;;;;6277730;28;20055;-88
2023/11/13 05:29:30;;;;;;;0.63;0.43;;;10.90;99.90;;;;;;6277020;28;20060;-87
2023/11/13 05:32:31;;;;;;;0.38;0.28;;;10.80;99.90;;;;;;6278301;28;20057;-86
2023/11/13 05:35:33;;;;;;;1.02;0.30;;;10.90;99.90;;;;;;6305124;28;20040;-88
2023/11/13 05:38:35;;;;;;;0.82;0.30;;;10.90;99.90;;;;;;6287468;28;20051;-91
2023/11/13 05:41:36;;;;;;;0.88;0.30;;;11.00;99.90;;;;;;6288419;28;20049;-93
2023/11/13 05:44:41;;;;;;;1.15;0.30;;;11.00;99.90;;;;;;6293733;28;20064;-89
2023/11/13 05:47:42;;;;;;;0.60;0.30;;;11.10;99.90;;;;;;6256138;28;20056;-88
2023/11/13 05:50:44;;;;;;;1.58;0.40;;;11.20;99.90;;;;;;6274854;28;20536;-92
2023/11/13 05:53:46;;;;;;;1.58;0.40;;;11.20;99.90;;;;;;6257306;28;20127;-89
2023/11/13 05:56:47;;;;;;;2.97;0.60;;;11.50;99.90;;;;;;6256893;28;20053;-88
2023/11/13 05:59:49;;;;;;;5.30;0.90;;;11.80;99.90;;;;;;6255493;28;20060;-91
2023/11/13 06:02:51;;;;;;;6.72;1.30;;;12.10;99.90;;;;;;6275029;28;20063;-92
2023/11/13 06:05:53;;;;;;;4.15;1.10;;;12.30;99.90;;;;;;6260298;28;20063;-88
2023/11/13 06:08:54;;;;;;;6.15;1.63;;;12.40;99.90;;;;;;6263477;28;20049;-87
2023/11/13 06:11:57;;;;;;;12.23;2.45;;;12.70;99.90;;;;;;6278770;28;20049;-89
2023/11/13 06:14:59;;;;;;;5.78;2.13;;;12.80;99.90;;;;;;6264080;28;20061;-87
2023/11/13 06:18:01;;;;;;;10.05;1.67;;;13.00;99.90;;;;;;6260599;28;20072;-89
2023/11/13 06:21:03;;;;;;;11.38;1.80;;;13.10;99.90;;;;;;6275425;28;20171;-86
2023/11/13 06:24:05;;;;;;;9.57;1.80;;;13.20;99.90;;;;;;6260953;28;20770;-85
2023/11/13 06:27:07;;;;;;;10.07;1.67;;;13.30;99.90;;;;;;6260403;28;20045;-88
2023/11/13 06:30:09;;;;;;;9.85;1.88;;;13.40;99.90;;;;;;6258034;28;20582;-90
2023/11/13 06:33:11;;;;;;;10.50;1.77;;;13.40;99.90;;;;;;6277293;28;20056;-89
2023/11/13 06:36:13;;;;;;;5.90;1.73;;;13.50;99.90;;;;;;6277380;28;20495;-89
2023/11/13 06:39:17;;;;;;;10.25;1.98;;;13.60;99.90;;;;;;6259066;28;20501;-91
2023/11/13 06:42:19;;;;;;;11.70;1.73;;;13.60;99.90;;;;;;6257970;28;20460;-88
2023/11/13 06:45:21;;;;;;;7.95;1.42;;;13.60;99.90;;;;;;6256014;28;20523;-88
2023/11/13 06:48:23;;;;;;;4.97;1.35;;;13.70;99.90;;;;;;6260156;28;20060;-90
2023/11/13 06:51:24;;;;;;;6.28;1.55;;;13.70;99.90;;;;;;6258857;28;20060;-89
2023/11/13 06:54:26;;;;;;;7.43;1.38;;;13.70;99.90;;;;;;6260808;28;20080;-92
2023/11/13 06:57:28;;;;;;;6.65;1.40;;;13.70;99.90;;;;;;6278941;28;20049;-92
2023/11/13 07:00:30;;;;;;;5.18;1.25;;;13.80;99.90;;;;;;6277683;28;20060;-88
2023/11/13 07:03:32;;;;;;;9.35;1.25;;;13.90;99.90;;;;;;6280065;28;20056;-93
2023/11/13 07:06:34;;;;;;;5.95;1.20;;;13.90;99.90;;;;;;6278065;28;20730;-88
2023/11/13 07:09:36;;;;;;;5.10;1.30;;;13.90;99.90;;;;;;6261646;28;20053;-89
2023/11/13 07:12:38;;;;;;;5.95;1.10;;;13.90;99.90;;;;;;6278807;28;20536;-86
2023/11/13 07:15:40;;;;;;;8.27;1.65;;;13.90;99.90;;;;;;6258820;28;20045;-89
2023/11/13 07:18:42;;;;;;;9.13;1.45;;;13.90;99.90;;;;;;6275334;28;20065;-87
2023/11/13 07:21:44;;;;;;;7.20;1.40;;;13.90;99.90;;;;;;6277018;28;20358;-88
2023/11/13 07:24:46;;;;;;;5.72;1.38;;;14.00;99.90;;;;;;6267836;28;20464;-90
2023/11/13 07:27:47;;;;;;;5.40;1.10;;;14.00;99.90;;;;;;6260011;28;20781;-89
2023/11/13 07:30:49;;;;;;;5.43;1.48;;;14.00;99.90;;;;;;6257331;28;20061;-89
2023/11/13 07:33:51;;;;;;;6.85;1.25;;;14.00;99.90;;;;;;6259994;28;20120;-90
2023/11/13 07:36:52;;;;;;;6.30;1.50;;;14.00;99.90;;;;;;6259325;28;20060;-87
2023/11/13 07:39:54;;;;;;;5.82;1.10;;;14.00;99.90;;;;;;6259021;28;20049;-89
2023/11/13 07:42:56;;;;;;;6.63;1.38;;;14.10;99.90;;;;;;6275947;28;20095;-86
2023/11/13 07:45:57;;;;;;;7.35;1.45;;;14.20;99.90;;;;;;6275478;28;20049;-89
2023/11/13 07:48:59;;;;;;;9.20;1.58;;;14.20;99.90;;;;;;6240443;28;20057;-89
2023/11/13 07:52:01;;;;;;;11.07;1.38;;;14.20;99.90;;;;;;6258904;28;20170;-89
2023/11/13 07:55:04;;;;;;;6.35;1.35;;;14.30;99.90;;;;;;6279589;28;20056;-89
2023/11/13 07:58:05;;;;;;;6.70;1.50;;;14.30;99.90;;;;;;6276791;28;20496;-89
2023/11/13 08:01:09;;;;;;;10.77;1.95;;;14.30;99.90;;;;;;6278668;28;20103;-89
2023/11/13 08:04:11;;;;;;;7.38;1.52;;;14.30;99.90;;;;;;6253197;28;20053;-93
2023/11/13 08:07:13;;;;;;;8.75;2.08;;;14.30;99.90;;;;;;6259807;28;20056;-89
2023/11/13 08:10:26;;;;;;;8.63;2.08;;;14.30;99.90;;;;;;6235739;28;20080;-91
2023/11/13 08:13:32;;;;;;;8.27;1.50;;;14.30;99.90;;;;;;6236058;28;20052;-87
2023/11/13 08:16:33;;;;;;;7.88;1.60;;;14.30;99.90;;;;;;6256507;28;20432;-86
2023/11/13 08:19:35;;;;;;;6.15;2.00;;;14.30;99.90;;;;;;6256369;28;20063;-85
2023/11/13 08:22:38;;;;;;;4.55;0.98;;;14.30;99.90;;;;;;6256933;28;20073;-88
2023/11/13 08:25:40;;;;;;;5.32;1.08;;;14.30;99.90;;;;;;6257591;28;20053;-88
2023/11/13 08:28:44;;;;;;;5.68;1.00;;;14.40;99.90;;;;;;6276900;28;20140;-89
2023/11/13 08:31:45;;;;;;;7.93;1.10;;;14.40;99.90;;;;;;6268363;28;20049;-88
2023/11/13 08:34:47;;;;;;;4.85;1.00;;;14.50;99.90;;;;;;6261436;28;20091;-89
2023/11/13 08:37:49;;;;;;;5.82;1.00;;;14.50;99.90;;;;;;6259323;28;20067;-88
2023/11/13 08:40:52;;;;;;;6.07;1.00;;;14.70;99.90;;;;;;6273612;28;20116;-86
2023/11/13 08:43:54;;;;;;;6.75;1.33;;;14.70;99.90;;;;;;6255729;28;20057;-87
2023/11/13 08:46:58;;;;;;;6.90;1.10;;;14.70;99.90;;;;;;6259767;28;20044;-89
2023/11/13 08:50:00;;;;;;;5.15;1.08;;;14.70;99.90;;;;;;6247101;28;20053;-85
2023/11/13 08:53:02;;;;;;;6.20;1.00;;;14.70;99.90;;;;;;6249752;28;20060;-85
2023/11/13 08:56:04;;;;;;;4.32;1.00;;;14.70;99.90;;;;;;6250761;28;20053;-91
2023/11/13 08:59:09;;;;;;;5.85;1.10;;;14.70;99.90;;;;;;6237131;28;20064;-89
2023/11/13 09:02:11;;;;;;;5.03;1.15;;;14.60;99.90;;;;;;6256817;28;20041;-92
2023/11/13 09:05:13;;;;;;;6.35;1.33;;;14.70;99.90;;;;;;6254215;28;20057;-92
2023/11/13 09:08:15;;;;;;;4.60;1.33;;;14.80;99.90;;;;;;6266092;28;20045;-92
2023/11/13 09:11:17;;;;;;;5.30;1.08;;;14.80;99.90;;;;;;6273850;28;20061;-91
2023/11/13 09:14:22;;;;;;;3.70;1.35;;;14.90;99.90;;;;;;6272728;28;20037;-90
2023/11/13 09:17:24;;;;;;;10.00;1.60;;;15.10;99.90;;;;;;6252263;28;20048;-91
2023/11/13 09:20:26;;;;;;;7.80;1.20;;;15.20;99.90;;;;;;6275347;28;20113;-92
2023/11/13 09:23:28;;;;;;;5.10;1.38;;;15.50;99.90;;;;;;6276427;28;20034;-91
2023/11/13 09:26:30;;;;;;;8.20;1.30;;;15.70;99.90;;;;;;6275308;28;20113;-92
2023/11/13 09:29:32;;;;;;;8.10;1.80;;;16.40;99.90;;;;;;6274282;28;20089;-93
2023/11/13 09:32:36;;;;;;;6.90;1.58;;;16.90;99.90;;;;;;6268927;28;20049;-92
2023/11/13 09:35:38;;;;;;;7.28;1.55;;;17.40;99.90;;;;;;6254853;28;20056;-83
2023/11/13 09:38:40;;;;;;;7.78;1.80;;;17.30;99.90;;;;;;6246932;28;20058;-92
2023/11/13 09:41:41;;;;;;;7.97;1.70;;;16.90;99.90;;;;;;6244947;28;20123;-83
2023/11/13 09:44:43;;;;;;;8.57;2.25;;;16.70;99.90;;;;;;6251389;28;20472;-86
2023/11/13 09:47:59;;;;;;;8.77;1.73;;;16.70;99.90;;;;;;6225378;28;20054;-92
2023/11/13 09:51:01;;;;;;;12.23;1.85;;;16.40;99.90;;;;;;6206996;28;20141;-88
2023/11/13 09:54:06;;;;;;;12.40;2.35;;;16.30;99.90;;;;;;6218694;28;20077;-91
2023/11/13 09:57:09;;;;;;;11.80;2.08;;;16.10;99.90;;;;;;6242279;28;20073;-89
2023/11/13 10:00:16;;;;;;;14.98;2.30;;;16.10;99.90;;;;;;6238965;28;20058;-89
2023/11/13 10:03:18;;;;;;;12.07;2.38;;;16.10;99.90;;;;;;6211588;28;20481;-91
2023/11/13 10:06:21;;;;;;;9.07;2.17;;;16.00;99.90;;;;;;6226987;28;20053;-91
2023/11/13 10:09:26;;;;;;;13.68;2.38;;;16.60;99.90;;;;;;6228148;28;20057;-92
2023/11/13 10:12:28;;;;;;;11.52;2.20;;;16.90;99.00;;;;;;6228872;28;20050;-92
2023/11/13 10:15:36;;;;;;;16.25;2.72;;;16.80;99.20;;;;;;6233732;28;20033;-93
2023/11/13 10:18:39;;;;;;;17.17;2.63;;;16.60;95.60;;;;;;6236423;28;20049;-93
2023/11/13 10:21:41;;;;;;;12.93;3.08;;;16.90;97.20;;;;;;6231662;28;20089;-92
2023/11/13 10:24:45;;;;;;;13.75;3.20;;;16.80;95.30;;;;;;6233638;28;20057;-92
2023/11/13 10:27:54;;;;;;;15.07;2.92;;;17.10;93.90;;;;;;6221874;28;20072;-86
2023/11/13 10:30:56;;;;;;;11.85;2.40;;;17.50;94.30;;;;;;6227402;28;20123;-93
2023/11/13 10:33:59;;;;;;;14.95;3.42;;;17.90;91.60;;;;;;6208569;28;20362;-92
2023/11/13 10:37:02;;;;;;;12.20;2.83;;;18.20;88.30;;;;;;6244919;28;20054;-84
2023/11/13 10:40:07;;;;;;;16.90;3.03;;;18.70;85.20;;;;;;6226874;28;20057;-89
2023/11/13 10:43:09;;;;;;;13.85;2.63;;;18.30;63.40;;;;;;6222236;28;20053;-84
2023/11/13 10:46:12;;;;;;;13.60;3.20;;;18.60;66.90;;;;;;6224042;28;20053;-84
2023/11/13 10:49:14;;;;;;;15.18;3.72;;;18.50;70.30;;;;;;6198581;28;20065;-84
2023/11/13 10:52:16;;;;;;;18.52;3.15;;;17.90;82.60;;;;;;6221365;28;20046;-82
2023/11/13 10:55:20;;;;;;;20.98;3.10;;;17.10;93.00;;;;;;6223717;28;20144;-83
2023/11/13 10:58:21;;;;;;;14.85;2.83;;;16.20;95.00;;;;;;6219354;28;20128;-86
2023/11/13 11:01:24;;;;;;;14.18;2.30;;;15.50;99.40;;;;;;6221778;28;20064;-84
2023/11/13 11:04:26;;;;;;;18.58;2.92;;;14.90;96.10;;;;;;6198654;28;20050;-85
2023/11/13 11:07:31;;;;;;;20.70;2.97;;;14.50;98.20;;;;;;6222777;28;20501;-86
2023/11/13 11:10:33;;;;;;;16.33;3.50;;;14.30;97.80;;;;;;6222344;28;20279;-82
2023/11/13 11:13:35;;;;;;;17.63;3.55;;;14.10;98.60;;;;;;6220340;28;20450;-84
2023/11/13 11:16:36;;;;;;;23.45;3.75;;;13.90;98.30;;;;;;6221910;28;20061;-83
2023/11/13 11:19:38;;;;;;;18.05;3.40;;;14.40;95.90;;;;;;6221057;28;20057;-83
2023/11/13 11:22:42;;;;;;;11.05;2.58;;;14.40;87.50;;;;;;6222137;28;20050;-86
2023/11/13 11:25:46;;;;;;;13.40;2.40;;;15.30;93.50;;;;;;6222039;28;20064;-85
2023/11/13 11:28:48;;;;;;;11.38;1.98;;;16.00;77.00;;;;;;6219030;28;20050;-83
2023/11/13 11:31:50;;;;;;;7.97;1.60;;;16.30;26.30;;;;;;6221102;28;20073;-83
2023/11/13 11:34:52;;;;;;;7.85;1.80;;;16.40;1.00;;;;;;6220130;28;20560;-83
2023/11/13 11:37:54;;;;;;;7.88;1.65;;;16.60;1.00;;;;;;6221461;28;20069;-81
2023/11/13 11:40:55;;;;;;;8.10;1.77;;;16.90;1.00;;;;;;6219212;28;20053;-85
2023/11/13 11:43:58;;;;;;;11.48;1.70;;;17.00;1.00;;;;;;6219694;28;20061;-82
2023/11/13 11:47:00;;;;;;;5.47;1.30;;;17.00;1.00;;;;;;6221379;28;20060;-81
2023/11/13 11:50:12;;;;;;;8.20;1.88;;;17.00;1.00;;;;;;6249834;28;20065;-85
2023/11/13 11:53:19;;;;;;;8.50;1.85;;;17.10;1.00;;;;;;6270497;28;20052;-83
2023/11/13 11:56:21;;;;;;;7.50;1.55;;;17.20;1.00;;;;;;6246606;28;20076;-86
2023/11/13 11:59:22;;;;;;;9.48;2.00;;;17.40;1.00;;;;;;6270143;28;20424;-82
2023/11/13 12:02:28;;;;;;;7.53;1.30;;;17.40;1.00;;;;;;6255060;28;20409;-84
2023/11/13 12:05:29;;;;;;;6.28;1.88;;;17.50;1.00;;;;;;6246420;28;20080;-83
2023/11/13 12:08:31;;;;;;;10.63;1.88;;;17.40;1.00;;;;;;6270013;28;20053;-84
2023/11/13 12:11:33;;;;;;;6.15;1.65;;;17.50;1.00;;;;;;6269569;28;20194;-80
2023/11/13 12:14:34;;;;;;;6.68;1.60;;;17.50;1.00;;;;;;6248888;28;20435;-82
2023/11/13 12:17:37;;;;;;;7.35;1.10;;;17.40;1.00;;;;;;6251367;28;20449;-80
2023/11/13 12:20:38;;;;;;;7.75;1.33;;;16.70;1.00;;;;;;6269459;28;20072;-80
2023/11/13 12:23:40;;;;;;;7.90;1.42;;;16.40;1.00;;;;;;6269973;28;20045;-81
2023/11/13 12:26:41;;;;;;;8.20;1.50;;;16.50;1.00;;;;;;6269289;28;20056;-79
2023/11/13 12:29:43;;;;;;;7.00;1.50;;;16.90;1.00;;;;;;6265883;28;20057;-80
2023/11/13 12:32:45;;;;;;;8.60;2.20;;;17.10;1.00;;;;;;6269266;28;20535;-85
2023/11/13 12:35:46;;;;;;;8.38;1.35;;;16.50;1.00;;;;;;6269682;28;20045;-87
2023/11/13 12:38:48;;;;;;;8.65;1.52;;;16.80;1.00;;;;;;6251953;28;20056;-84
2023/11/13 12:41:52;;;;;;;9.18;1.92;;;17.10;1.00;;;;;;6267544;28;20048;-84
2023/11/13 12:44:55;;;;;;;6.43;1.27;;;17.40;1.00;;;;;;6251600;28;20053;-88
2023/11/13 12:48:10;;;;;;;9.15;1.38;;;17.40;1.00;;;;;;6245460;28;20053;-87
2023/11/13 12:51:15;;;;;;;8.60;1.48;;;17.30;1.00;;;;;;6253137;28;20061;-88
2023/11/13 12:54:17;;;;;;;9.35;1.95;;;17.30;1.00;;;;;;6270100;28;20068;-84
2023/11/13 12:57:18;;;;;;;8.27;1.35;;;17.20;1.00;;;;;;6251973;28;20057;-86
2023/11/13 13:00:20;;;;;;;14.90;2.78;;;17.00;1.00;;;;;;6267922;28;20135;-86
2023/11/13 13:03:22;;;;;;;9.95;1.60;;;16.60;1.00;;;;;;6251242;28;20060;-86
2023/11/13 13:06:24;;;;;;;9.73;1.63;;;16.60;1.00;;;;;;6269397;28;20458;-89
2023/11/13 13:09:25;;;;;;;8.43;1.40;;;16.20;1.00;;;;;;6252017;28;20057;-85
2023/11/13 13:12:31;;;;;;;9.02;1.67;;;15.70;1.00;;;;;;6270759;28;20056;-86
2023/11/13 13:15:33;;;;;;;9.80;1.63;;;15.40;1.00;;;;;;6251009;28;20623;-86
2023/11/13 13:18:36;;;;;;;6.05;1.60;;;15.20;1.00;;;;;;6252109;28;20059;-85
2023/11/13 13:21:39;;;;;;;9.23;1.90;;;15.30;1.00;;;;;;6251062;28;20585;-86
2023/11/13 13:24:40;;;;;;;8.20;1.58;;;15.40;1.00;;;;;;6252596;28;20045;-86
2023/11/13 13:27:42;;;;;;;9.23;1.73;;;16.00;1.00;;;;;;6269176;28;20084;-83
2023/11/13 13:30:44;;;;;;;11.02;2.03;;;16.20;1.00;;;;;;6250015;28;20052;-84
2023/11/13 13:33:46;;;;;;;11.93;1.60;;;16.00;1.00;;;;;;6269129;28;20060;-86
2023/11/13 13:36:48;;;;;;;9.85;1.83;;;15.60;1.00;;;;;;6269848;28;20049;-88
2023/11/13 13:39:52;;;;;;;10.70;2.25;;;15.40;1.00;;;;;;6251048;28;20060;-85
2023/11/13 13:42:58;;;;;;;7.90;1.52;;;15.20;1.00;;;;;;6258375;28;20647;-82
2023/11/13 13:46:02;;;;;;;11.88;1.92;;;15.00;1.00;;;;;;6249899;28;20574;-83
2023/11/13 13:49:06;;;;;;;11.88;1.65;;;15.20;1.00;;;;;;6235297;28;20393;-84
2023/11/13 13:52:07;;;;;;;10.18;2.40;;;15.00;1.00;;;;;;6273302;28;20059;-85
2023/11/13 13:55:10;;;;;;;12.88;2.33;;;15.00;1.00;;;;;;6256007;28;20057;-83
2023/11/13 13:58:12;;;;;;;14.27;3.00;;;14.90;1.00;;;;;;6255045;28;20527;-85
2023/11/13 14:01:14;;;;;;;13.95;2.35;;;14.90;1.00;;;;;;6276381;28;20061;-82
2023/11/13 14:04:16;;;;;;;11.35;2.35;;;14.70;1.00;;;;;;6276604;28;20048;-85
2023/11/13 14:07:18;;;;;;;16.98;2.75;;;14.50;1.00;;;;;;6279078;28;20087;-83
2023/11/13 14:10:19;;;;;;;13.35;2.38;;;14.50;1.00;;;;;;6278409;28;20053;-83
2023/11/13 14:13:24;;;;;;;14.50;2.22;;;14.40;1.00;;;;;;6273012;28;20056;-85
2023/11/13 14:16:27;;;;;;;13.15;2.47;;;14.40;1.00;;;;;;6258810;28;20063;-85
2023/11/13 14:19:29;;;;;;;13.02;2.42;;;14.50;1.00;;;;;;6274390;28;20590;-85
2023/11/13 14:22:31;;;;;;;17.70;2.60;;;14.40;1.00;;;;;;6275074;28;20041;-85
2023/11/13 14:25:32;;;;;;;13.60;2.47;;;14.40;1.00;;;;;;6256386;28;20059;-84
2023/11/13 14:28:35;;;;;;;16.80;2.20;;;14.40;1.00;;;;;;6271995;28;20754;-85
2023/11/13 14:31:39;;;;;;;14.70;2.25;;;14.40;1.00;;;;;;6276354;28;20052;-84
2023/11/13 14:34:41;;;;;;;13.07;1.95;;;14.40;1.00;;;;;;6274047;28;20510;-84
2023/11/13 14:37:43;;;;;;;11.07;2.50;;;14.60;1.00;;;;;;6256865;28;20487;-84
2023/11/13 14:40:45;;;;;;;12.35;2.17;;;14.60;1.00;;;;;;6257523;28;20126;-83
2023/11/13 14:43:47;;;;;;;15.88;2.58;;;14.50;1.00;;;;;;6273964;28;20037;-82
2023/11/13 14:46:49;;;;;;;11.95;2.47;;;14.40;1.00;;;;;;6273944;28;20555;-83
2023/11/13 14:49:50;;;;;;;15.15;2.80;;;14.40;1.00;;;;;;6252897;28;20064;-81
2023/11/13 14:52:52;;;;;;;15.43;2.45;;;14.30;1.00;;;;;;6248365;28;20528;-82
2023/11/13 14:55:54;;;;;;;16.35;2.40;;;14.40;1.00;;;;;;6274830;28;20483;-82
2023/11/13 14:58:56;;;;;;;15.57;2.20;;;14.50;1.00;;;;;;6249307;28;20186;-81
2023/11/13 15:01:58;;;;;;;9.27;1.70;;;14.50;1.00;;;;;;6263856;28;20155;-82
2023/11/13 15:04:59;;;;;;;11.75;1.92;;;14.40;1.00;;;;;;6273685;28;20049;-83
2023/11/13 15:08:03;;;;;;;9.73;1.67;;;14.40;1.00;;;;;;6279293;28;20049;-81
2023/11/13 15:11:09;;;;;;;15.05;2.15;;;14.30;1.00;;;;;;6255590;28;20518;-82
2023/11/13 15:14:12;;;;;;;10.80;1.75;;;14.30;1.00;;;;;;6237556;28;20178;-80
2023/11/13 15:17:14;;;;;;;12.95;2.33;;;14.20;1.00;;;;;;6272048;28;20053;-78
2023/11/13 15:20:16;;;;;;;11.32;2.17;;;14.20;1.00;;;;;;6270413;28;20083;-83
2023/11/13 15:23:19;;;;;;;11.38;2.28;;;14.20;1.00;;;;;;6273904;28;20528;-82
2023/11/13 15:26:41;;;;;;;16.30;2.63;;;14.10;1.00;;;;;;6249967;28;20144;-83
2023/11/13 15:29:42;;;;;;;12.00;2.40;;;14.00;1.00;;;;;;6270481;28;20072;-82
2023/11/13 15:32:46;;;;;;;16.40;3.20;;;13.90;1.00;;;;;;6273281;28;20140;-83
2023/11/13 15:35:48;;;;;;;14.60;3.28;;;13.90;1.00;;;;;;6269830;28;20049;-82
2023/11/13 15:38:49;;;;;;;12.20;2.72;;;13.80;1.00;;;;;;6270133;28;20507;-83
2023/11/13 15:41:51;;;;;;;14.70;2.90;;;13.80;1.00;;;;;;6269556;28;20060;-83
2023/11/13 15:44:53;;;;;;;18.50;3.08;;;13.80;1.00;;;;;;6267470;28;20060;-82